createdAt,value
2024-05-09T00:00:43.975Z,101767.97
2024-05-09T00:04:07.785Z,101771.19
2024-05-09T00:07:10.918Z,101770.97
2024-05-09T00:10:22.350Z,101762.81
2024-05-09T00:13:32.103Z,101773.41
2024-05-09T00:16:34.684Z,101775.16
2024-05-09T00:19:37.675Z,101770.53
2024-05-09T00:22:40.285Z,101771.31
2024-05-09T00:25:43.811Z,101763.28
2024-05-09T00:28:46.734Z,101766.47
2024-05-09T00:31:49.792Z,101762.63
2024-05-09T00:34:52.578Z,101765.00
2024-05-09T00:37:55.743Z,101764.75
2024-05-09T00:40:58.278Z,101753.75
2024-05-09T00:44:01.376Z,101771.22
2024-05-09T00:47:04.310Z,101772.84
2024-05-09T00:50:12.737Z,101776.16
2024-05-09T00:53:19.074Z,101775.88
2024-05-09T00:56:22.445Z,101785.56
2024-05-09T00:59:25.309Z,101780.94
2024-05-09T01:02:31.217Z,101783.47
2024-05-09T01:05:35.028Z,101775.19
2024-05-09T01:08:38.942Z,101776.63
2024-05-09T01:11:41.996Z,101786.31
2024-05-09T01:14:45.150Z,101783.34
2024-05-09T01:17:48.018Z,101791.28
2024-05-09T01:20:51.382Z,101783.06
2024-05-09T01:23:53.982Z,101789.91
2024-05-09T01:26:56.890Z,101792.56
2024-05-09T01:29:59.463Z,101787.06
2024-05-09T01:33:02.689Z,101791.47
2024-05-09T01:36:05.693Z,101787.81
2024-05-09T01:39:08.748Z,101795.75
2024-05-09T01:42:11.297Z,101795.75
2024-05-09T01:45:14.283Z,101795.50
2024-05-09T01:48:16.975Z,101792.84
2024-05-09T01:51:20.188Z,101798.94
2024-05-09T01:54:22.720Z,101791.59
2024-05-09T01:57:25.805Z,101789.75
2024-05-09T02:00:37.781Z,101794.84
2024-05-09T02:03:47.195Z,101784.03
2024-05-09T02:06:49.910Z,101790.72
2024-05-09T02:09:55.783Z,101786.13
2024-05-09T02:12:58.296Z,101787.88
2024-05-09T02:16:01.286Z,101785.19
2024-05-09T02:19:04.049Z,101785.06
2024-05-09T02:22:07.168Z,101791.78
2024-05-09T02:25:09.737Z,101799.47
2024-05-09T02:28:12.793Z,101786.19
2024-05-09T02:31:15.436Z,101783.47
2024-05-09T02:34:18.544Z,101792.00
2024-05-09T02:37:21.206Z,101789.31
2024-05-09T02:40:33.234Z,101789.06
2024-05-09T02:43:39.737Z,101789.75
2024-05-09T02:46:42.749Z,101797.78
2024-05-09T02:49:45.418Z,101787.09
2024-05-09T02:52:48.561Z,101805.06
2024-05-09T02:55:51.307Z,101799.88
2024-05-09T02:58:54.389Z,101795.28
2024-05-09T03:01:57.217Z,101785.19
2024-05-09T03:05:00.930Z,101788.50
2024-05-09T03:08:03.703Z,101788.31
2024-05-09T03:11:06.963Z,101786.88
2024-05-09T03:14:09.538Z,101793.72
2024-05-09T03:17:12.570Z,101793.31
2024-05-09T03:20:23.203Z,101790.41
2024-05-09T03:23:28.315Z,101798.53
2024-05-09T03:26:30.949Z,101797.00
2024-05-09T03:29:34.182Z,101794.25
2024-05-09T03:32:37.028Z,101807.91
2024-05-09T03:35:40.251Z,101807.00
2024-05-09T03:38:42.952Z,101808.81
2024-05-09T03:41:46.003Z,101813.31
2024-05-09T03:44:48.585Z,101809.31
2024-05-09T03:47:51.955Z,101805.88
2024-05-09T03:50:55.005Z,101809.44
2024-05-09T03:53:58.463Z,101813.91
2024-05-09T03:57:01.992Z,101810.53
2024-05-09T04:00:11.893Z,101801.75
2024-05-09T04:03:20.545Z,101808.81
2024-05-09T04:06:24.873Z,101794.00
2024-05-09T04:09:27.447Z,101794.88
2024-05-09T04:12:30.776Z,101799.41
2024-05-09T04:15:33.583Z,101808.38
2024-05-09T04:18:37.108Z,101806.72
2024-05-09T04:21:39.857Z,101811.41
2024-05-09T04:24:43.041Z,101807.97
2024-05-09T04:27:45.655Z,101816.06
2024-05-09T04:30:48.768Z,101807.56
2024-05-09T04:33:51.714Z,101816.66
2024-05-09T04:36:54.876Z,101805.38
2024-05-09T04:39:58.064Z,101802.28
2024-05-09T04:43:01.524Z,101802.59
2024-05-09T04:46:04.484Z,101792.25
2024-05-09T04:49:07.825Z,101799.00
2024-05-09T04:52:10.609Z,101794.84
2024-05-09T04:55:13.802Z,101796.22
2024-05-09T04:58:16.575Z,101791.63
2024-05-09T05:01:19.872Z,101799.88
2024-05-09T05:04:22.640Z,101802.91
2024-05-09T05:07:25.702Z,101808.03
2024-05-09T05:10:34.012Z,101809.16
2024-05-09T05:13:41.595Z,101804.59
2024-05-09T05:16:44.534Z,101800.97
2024-05-09T05:19:47.892Z,101806.03
2024-05-09T05:22:50.775Z,101809.13
2024-05-09T05:25:54.522Z,101802.69
2024-05-09T05:28:57.422Z,101804.97
2024-05-09T05:32:00.783Z,101803.03
2024-05-09T05:35:03.822Z,101797.50
2024-05-09T05:38:08.424Z,101798.75
2024-05-09T05:41:11.068Z,101805.56
2024-05-09T05:44:16.084Z,101803.56
2024-05-09T05:47:19.028Z,101805.94
2024-05-09T05:50:27.929Z,101796.81
2024-05-09T05:53:37.866Z,101792.16
2024-05-09T05:56:41.098Z,101786.78
2024-05-09T05:59:43.936Z,101785.69
2024-05-09T06:02:47.664Z,101795.25
2024-05-09T06:05:50.569Z,101786.09
2024-05-09T06:08:54.457Z,101779.44
2024-05-09T06:11:57.412Z,101780.03
2024-05-09T06:15:01.077Z,101784.88
2024-05-09T06:18:06.817Z,101773.66
2024-05-09T06:21:10.341Z,101778.22
2024-05-09T06:24:13.358Z,101775.56
2024-05-09T06:27:16.415Z,101765.72
2024-05-09T06:30:26.269Z,101766.44
2024-05-09T06:33:38.177Z,101761.59
2024-05-09T06:36:41.679Z,101769.13
2024-05-09T06:39:46.405Z,101766.22
2024-05-09T06:42:49.016Z,101758.63
2024-05-09T06:45:54.747Z,101756.47
2024-05-09T06:48:59.402Z,101758.72
2024-05-09T06:52:02.580Z,101758.78
2024-05-09T06:55:05.544Z,101760.50
2024-05-09T06:58:11.828Z,101753.00
2024-05-09T07:01:14.579Z,101751.56
2024-05-09T07:04:18.034Z,101735.78
2024-05-09T07:07:20.768Z,101750.47
2024-05-09T07:10:29.032Z,101747.69
2024-05-09T07:13:36.913Z,101748.59
2024-05-09T07:16:40.342Z,101740.78
2024-05-09T07:19:43.077Z,101736.41
2024-05-09T07:22:46.240Z,101736.66
2024-05-09T07:25:48.940Z,101731.19
2024-05-09T07:28:52.052Z,101731.06
2024-05-09T07:31:55.418Z,101728.00
2024-05-09T07:34:58.597Z,101742.13
2024-05-09T07:38:01.314Z,101734.97
2024-05-09T07:41:04.597Z,101737.53
2024-05-09T07:44:07.264Z,101737.75
2024-05-09T07:48:27.492Z,101732.84
2024-05-09T07:52:23.240Z,101737.50
2024-05-09T07:54:00.680Z,101736.25
2024-05-09T07:57:04.358Z,101731.53
2024-05-09T08:00:11.630Z,101720.47
2024-05-09T08:03:14.553Z,101721.28
2024-05-09T08:06:17.960Z,101717.28
2024-05-09T08:09:22.455Z,101720.59
2024-05-09T08:12:25.909Z,101708.13
2024-05-09T08:15:28.637Z,101715.88
2024-05-09T08:18:33.013Z,101717.16
2024-05-09T08:21:35.836Z,101710.56
2024-05-09T08:24:39.117Z,101716.41
2024-05-09T08:27:42.813Z,101711.75
2024-05-09T08:30:46.617Z,101706.91
2024-05-09T08:33:51.849Z,101701.34
2024-05-09T08:36:57.538Z,101702.44
2024-05-09T08:40:00.477Z,101705.25
2024-05-09T08:43:08.248Z,101696.03
2024-05-09T08:46:13.712Z,101689.00
2024-05-09T08:49:17.282Z,101686.34
2024-05-09T08:52:20.010Z,101690.75
2024-05-09T08:55:23.029Z,101693.78
2024-05-09T08:58:26.332Z,101688.44
2024-05-09T09:01:31.797Z,101687.13
2024-05-09T09:04:39.003Z,101679.72
2024-05-09T09:07:48.562Z,101690.22
2024-05-09T09:10:54.439Z,101684.94
2024-05-09T09:13:57.787Z,101669.00
2024-05-09T09:17:00.814Z,101675.69
2024-05-09T09:20:04.527Z,101669.63
2024-05-09T09:23:09.149Z,101676.38
2024-05-09T09:26:16.918Z,101673.88
2024-05-09T09:29:21.029Z,101670.53
2024-05-09T09:32:28.736Z,101665.00
2024-05-09T09:35:31.475Z,101670.88
2024-05-09T09:38:37.940Z,101663.00
2024-05-09T09:41:44.600Z,101661.72
2024-05-09T09:44:54.634Z,101666.53
2024-05-09T09:48:05.792Z,101669.28
2024-05-09T09:51:09.602Z,101654.69
2024-05-09T09:54:13.708Z,101669.25
2024-05-09T09:57:16.902Z,101661.97
2024-05-09T10:00:27.052Z,101653.97
2024-05-09T10:03:35.520Z,101653.59
2024-05-09T10:06:43.120Z,101650.66
2024-05-09T10:09:46.638Z,101663.41
2024-05-09T10:13:13.493Z,101655.69
2024-05-09T10:16:22.412Z,101653.91
2024-05-09T10:19:28.764Z,101656.31
2024-05-09T10:22:33.306Z,101652.28
2024-05-09T10:25:36.816Z,101645.25
2024-05-09T10:28:45.308Z,101649.44
2024-05-09T10:31:48.578Z,101650.94
2024-05-09T10:35:07.989Z,101655.84
2024-05-09T10:38:10.875Z,101655.97
2024-05-09T10:41:14.194Z,101656.34
2024-05-09T10:44:23.920Z,101640.91
2024-05-09T10:47:27.428Z,101641.25
2024-05-09T10:50:34.094Z,101642.13
2024-05-09T10:53:42.802Z,101628.44
2024-05-09T10:56:45.636Z,101629.59
2024-05-09T10:59:51.927Z,101624.28
2024-05-09T11:02:54.833Z,101634.22
2024-05-09T11:05:58.508Z,101625.63
2024-05-09T11:09:01.310Z,101623.78
2024-05-09T11:12:05.530Z,101618.94
2024-05-09T11:15:08.532Z,101613.47
2024-05-09T11:18:24.752Z,101609.66
2024-05-09T11:21:28.664Z,101605.88
2024-05-09T11:24:32.838Z,101599.47
2024-05-09T11:27:36.412Z,101587.75
2024-05-09T11:30:39.647Z,101585.03
2024-05-09T11:33:49.227Z,101583.56
2024-05-09T11:36:53.166Z,101572.53
2024-05-09T11:39:56.392Z,101570.06
2024-05-09T11:42:59.958Z,101565.06
2024-05-09T11:46:03.817Z,101559.66
2024-05-09T11:49:07.916Z,101560.31
2024-05-09T11:52:10.819Z,101559.22
2024-05-09T11:55:14.549Z,101556.88
2024-05-09T11:58:18.744Z,101559.84
2024-05-09T12:01:25.305Z,101561.03
2024-05-09T12:04:29.892Z,101552.41
2024-05-09T12:07:33.184Z,101541.78
2024-05-09T12:10:36.896Z,101551.63
2024-05-09T12:13:40.523Z,101554.69
2024-05-09T12:16:43.363Z,101549.63
2024-05-09T12:19:46.697Z,101550.97
2024-05-09T12:22:49.522Z,101543.91
2024-05-09T12:25:52.849Z,101555.53
2024-05-09T12:28:55.706Z,101547.06
2024-05-09T12:31:59.006Z,101556.47
2024-05-09T12:35:01.895Z,101552.75
2024-05-09T12:38:05.355Z,101541.91
2024-05-09T12:41:09.297Z,101544.72
2024-05-09T12:44:12.774Z,101542.75
2024-05-09T12:47:15.746Z,101534.31
2024-05-09T12:50:28.781Z,101518.81
2024-05-09T12:53:36.241Z,101527.59
2024-05-09T12:56:39.433Z,101518.66
2024-05-09T12:59:42.807Z,101517.88
2024-05-09T13:02:45.922Z,101531.09
2024-05-09T13:05:50.129Z,101523.09
2024-05-09T13:08:53.284Z,101514.94
2024-05-09T13:11:56.067Z,101503.34
2024-05-09T13:14:59.227Z,101516.59
2024-05-09T13:18:03.497Z,101509.16
2024-05-09T13:21:07.117Z,101504.31
2024-05-09T13:24:09.645Z,101502.88
2024-05-09T13:27:12.809Z,101509.06
2024-05-09T13:30:25.402Z,101503.53
2024-05-09T13:33:33.516Z,101501.75
2024-05-09T13:36:36.455Z,101486.28
2024-05-09T13:39:40.359Z,101484.22
2024-05-09T13:42:43.928Z,101479.19
2024-05-09T13:45:48.165Z,101490.88
2024-05-09T13:48:51.069Z,101472.91
2024-05-09T13:51:54.398Z,101464.69
2024-05-09T13:54:57.111Z,101470.75
2024-05-09T13:58:00.756Z,101474.03
2024-05-09T14:01:03.691Z,101473.41
2024-05-09T14:04:10.122Z,101469.06
2024-05-09T14:07:13.245Z,101452.41
2024-05-09T14:10:23.222Z,101450.66
2024-05-09T14:13:31.475Z,101454.19
2024-05-09T14:16:36.736Z,101446.59
2024-05-09T14:19:39.478Z,101443.63
2024-05-09T14:22:42.709Z,101445.84
2024-05-09T14:25:48.184Z,101455.03
2024-05-09T14:28:53.536Z,101447.22
2024-05-09T14:31:56.290Z,101453.16
2024-05-09T14:34:59.431Z,101450.75
2024-05-09T14:38:02.324Z,101432.56
2024-05-09T14:41:09.670Z,101438.47
2024-05-09T14:44:13.021Z,101437.53
2024-05-09T14:47:18.765Z,101433.50
2024-05-09T14:50:28.080Z,101418.69
2024-05-09T14:53:38.547Z,101427.56
2024-05-09T14:56:41.711Z,101424.94
2024-05-09T14:59:44.745Z,101427.75
2024-05-09T15:02:48.049Z,101425.38
2024-05-09T15:05:51.944Z,101423.22
2024-05-09T15:08:57.733Z,101414.06
2024-05-09T15:12:01.181Z,101416.25
2024-05-09T15:15:04.808Z,101412.91
2024-05-09T15:18:07.986Z,101421.97
2024-05-09T15:21:10.857Z,101412.75
2024-05-09T15:24:13.993Z,101398.19
2024-05-09T15:27:17.549Z,101396.59
2024-05-09T15:30:29.798Z,101397.53
2024-05-09T15:33:34.994Z,101386.66
2024-05-09T15:36:39.783Z,101385.19
2024-05-09T15:39:43.669Z,101384.44
2024-05-09T15:42:47.231Z,101377.78
2024-05-09T15:45:49.961Z,101382.75
2024-05-09T15:48:53.233Z,101382.34
2024-05-09T15:51:56.044Z,101381.75
2024-05-09T15:54:59.212Z,101381.16
2024-05-09T15:58:02.801Z,101379.03
2024-05-09T16:01:06.736Z,101368.78
2024-05-09T16:04:12.445Z,101368.31
2024-05-09T16:07:15.649Z,101354.72
2024-05-09T16:10:23.151Z,101361.13
2024-05-09T16:13:29.335Z,101361.72
2024-05-09T16:16:32.388Z,101347.03
2024-05-09T16:19:35.626Z,101348.84
2024-05-09T16:22:38.300Z,101350.38
2024-05-09T16:25:46.462Z,101341.91
2024-05-09T16:28:49.270Z,101330.75
2024-05-09T16:31:52.456Z,101342.53
2024-05-09T16:34:55.258Z,101346.91
2024-05-09T16:37:58.588Z,101343.38
2024-05-09T16:41:01.418Z,101336.31
2024-05-09T16:44:04.626Z,101345.66
2024-05-09T16:47:08.261Z,101343.50
2024-05-09T16:50:12.929Z,101340.03
2024-05-09T16:53:19.561Z,101342.22
2024-05-09T16:56:26.563Z,101351.91
2024-05-09T16:59:29.218Z,101354.31
2024-05-09T17:02:32.698Z,101353.03
2024-05-09T17:05:36.213Z,101354.91
2024-05-09T17:08:41.354Z,101348.06
2024-05-09T17:11:44.020Z,101345.94
2024-05-09T17:14:47.291Z,101341.84
2024-05-09T17:17:50.149Z,101346.63
2024-05-09T17:20:53.307Z,101354.31
2024-05-09T17:23:56.159Z,101344.94
2024-05-09T17:27:00.643Z,101344.66
2024-05-09T17:30:06.173Z,101345.38
2024-05-09T17:33:11.225Z,101333.47
2024-05-09T17:36:16.420Z,101344.72
2024-05-09T17:39:19.606Z,101344.34
2024-05-09T17:42:22.163Z,101347.44
2024-05-09T17:45:25.383Z,101346.25
2024-05-09T17:48:28.247Z,101351.25
2024-05-09T17:51:31.833Z,101347.53
2024-05-09T17:54:34.748Z,101349.13
2024-05-09T17:57:38.059Z,101354.03
2024-05-09T18:00:42.426Z,101355.38
2024-05-09T18:03:46.659Z,101352.50
2024-05-09T18:06:49.618Z,101356.91
2024-05-09T18:09:52.844Z,101359.47
2024-05-09T18:12:55.638Z,101364.56
2024-05-09T18:15:59.166Z,101319.34
2024-05-09T18:19:01.963Z,101366.09
2024-05-09T18:22:05.713Z,101371.28
2024-05-09T18:25:08.852Z,101370.75
2024-05-09T18:28:12.645Z,101366.97
2024-05-09T18:31:16.027Z,101370.91
2024-05-09T18:34:19.700Z,101383.84
2024-05-09T18:37:23.675Z,101385.00
2024-05-09T18:40:33.318Z,101388.03
2024-05-09T18:43:44.968Z,101393.66
2024-05-09T18:46:53.146Z,101402.75
2024-05-09T18:49:56.758Z,101405.75
2024-05-09T18:53:00.247Z,101397.09
2024-05-09T18:56:04.891Z,101400.00
2024-05-09T18:59:09.655Z,101388.63
2024-05-09T19:02:13.657Z,101386.19
2024-05-09T19:05:21.608Z,101389.94
2024-05-09T19:08:25.791Z,101391.03
2024-05-09T19:11:30.415Z,101383.19
2024-05-09T19:14:33.998Z,101386.13
2024-05-09T19:17:38.664Z,101391.66
2024-05-09T19:20:42.938Z,101385.53
2024-05-09T19:23:52.080Z,101390.94
2024-05-09T19:26:58.640Z,101388.44
2024-05-09T19:30:03.222Z,101392.94
2024-05-09T19:33:11.927Z,101394.78
2024-05-09T19:36:20.598Z,101398.44
2024-05-09T19:39:26.826Z,101391.34
2024-05-09T19:42:35.136Z,101397.59
2024-05-09T19:45:40.588Z,101393.19
2024-05-09T19:48:45.604Z,101402.09
2024-05-09T19:51:50.042Z,101393.25
2024-05-09T19:54:54.974Z,101396.84
2024-05-09T19:57:58.942Z,101393.31
2024-05-09T20:01:04.062Z,101397.72
2024-05-09T20:04:08.061Z,101399.50
2024-05-09T20:07:14.005Z,101403.97
2024-05-09T20:10:23.731Z,101404.88
2024-05-09T20:13:34.452Z,101406.66
2024-05-09T20:16:38.854Z,101412.00
2024-05-09T20:19:47.790Z,101420.91
2024-05-09T20:22:51.940Z,101419.13
2024-05-09T20:25:57.267Z,101417.28
2024-05-09T20:29:04.545Z,101412.81
2024-05-09T20:32:09.203Z,101416.34
2024-05-09T20:35:12.823Z,101417.16
2024-05-09T20:38:17.542Z,101414.41
2024-05-09T20:41:21.076Z,101416.16
2024-05-09T20:44:25.089Z,101417.00
2024-05-09T20:47:28.258Z,101405.41
2024-05-09T20:50:38.351Z,101406.22
2024-05-09T20:53:44.089Z,101400.81
2024-05-09T20:56:47.547Z,101405.16
2024-05-09T20:59:50.374Z,101412.19
2024-05-09T21:02:53.548Z,101411.28
2024-05-09T21:05:56.493Z,101413.94
2024-05-09T21:08:59.663Z,101410.44
2024-05-09T21:12:02.480Z,101409.50
2024-05-09T21:15:06.124Z,101412.03
2024-05-09T21:18:09.051Z,101416.44
2024-05-09T21:21:12.538Z,101415.50
2024-05-09T21:24:15.274Z,101417.97
2024-05-09T21:27:19.401Z,101407.28
2024-05-09T21:30:32.481Z,101411.59
2024-05-09T21:33:43.667Z,101403.53
2024-05-09T21:36:46.452Z,101408.00
2024-05-09T21:39:49.633Z,101400.91
2024-05-09T21:42:52.266Z,101400.91
2024-05-09T21:45:55.376Z,101410.59
2024-05-09T21:48:58.443Z,101398.09
2024-05-09T21:52:01.565Z,101401.59
2024-05-09T21:55:04.327Z,101397.03
2024-05-09T21:58:07.467Z,101398.72
2024-05-09T22:01:10.749Z,101396.75
2024-05-09T22:04:14.122Z,101398.44
2024-05-09T22:07:17.086Z,101391.34
2024-05-09T22:10:26.236Z,101404.69
2024-05-09T22:13:33.735Z,101402.88
2024-05-09T22:16:41.140Z,101408.22
2024-05-09T22:19:47.503Z,101400.16
2024-05-09T22:22:50.814Z,101391.13
2024-05-09T22:25:53.549Z,101390.06
2024-05-09T22:28:56.580Z,101391.00
2024-05-09T22:31:59.386Z,101384.72
2024-05-09T22:35:02.834Z,101387.34
2024-05-09T22:38:05.883Z,101395.25
2024-05-09T22:41:09.677Z,101393.41
2024-05-09T22:44:12.333Z,101380.13
2024-05-09T22:47:15.399Z,101389.84
2024-05-09T22:50:26.341Z,101381.88
2024-05-09T22:53:30.251Z,101388.97
2024-05-09T22:56:32.947Z,101383.50
2024-05-09T22:59:35.938Z,101393.09
2024-05-09T23:02:38.619Z,101392.97
2024-05-09T23:05:41.739Z,101385.78
2024-05-09T23:08:44.387Z,101389.16
2024-05-09T23:11:47.521Z,101378.47
2024-05-09T23:14:50.174Z,101381.13
2024-05-09T23:17:53.520Z,101382.78
2024-05-09T23:20:56.251Z,101380.88
2024-05-09T23:23:59.289Z,101378.22
2024-05-09T23:27:02.015Z,101383.47
2024-05-09T23:30:07.662Z,101378.88
2024-05-09T23:33:13.899Z,101376.81
2024-05-09T23:36:18.072Z,101368.84
2024-05-09T23:39:20.651Z,101366.84
2024-05-09T23:42:23.658Z,101375.13
2024-05-09T23:45:26.264Z,101377.03
2024-05-09T23:48:29.453Z,101371.78
2024-05-09T23:51:32.122Z,101376.88
2024-05-09T23:54:35.415Z,101374.38
2024-05-09T23:57:38.304Z,101369.88
